createdAt,value
2022-07-29T00:03:22.861Z,100259.09
2022-07-29T00:10:12.193Z,100241.22
2022-07-29T00:16:57.969Z,100250.06
2022-07-29T00:23:43.452Z,100242.53
2022-07-29T00:30:31.664Z,100249.41
2022-07-29T00:37:17.148Z,100256.44
2022-07-29T00:44:02.385Z,100251.19
2022-07-29T00:50:50.590Z,100230.16
2022-07-29T00:57:36.444Z,100249.44
2022-07-29T01:04:22.030Z,100238.25
2022-07-29T01:11:09.949Z,100232.16
2022-07-29T01:18:05.077Z,100227.41
2022-07-29T01:25:22.037Z,100215.41
2022-07-29T01:32:22.579Z,100213.84
2022-07-29T01:39:18.325Z,100215.91
2022-07-29T01:46:08.780Z,100207.09
2022-07-29T01:53:02.370Z,100208.31
2022-07-29T01:59:50.408Z,100149.44
2022-07-29T02:06:41.036Z,100206.38
2022-07-29T02:13:32.351Z,100201.16
2022-07-29T02:20:18.552Z,100206.38
2022-07-29T02:27:06.613Z,100199.56
2022-07-29T02:33:56.936Z,100199.59
2022-07-29T02:40:44.300Z,100201.19
2022-07-29T03:01:25.401Z,100196.72
2022-07-29T03:08:14.884Z,100198.72
2022-07-29T03:15:02.923Z,100197.88
2022-07-29T03:21:51.236Z,100188.25
2022-07-29T03:28:36.778Z,100189.41
2022-07-29T03:35:23.623Z,100140.38
2022-07-29T03:42:15.907Z,100186.06
2022-07-29T03:49:05.235Z,100188.47
2022-07-29T03:55:58.081Z,100186.84
2022-07-29T04:02:49.804Z,100186.41
2022-07-29T04:09:35.772Z,100194.00
2022-07-29T04:16:21.374Z,100191.19
2022-07-29T04:23:09.496Z,100191.19
2022-07-29T04:29:56.360Z,100200.00
2022-07-29T04:36:42.966Z,100197.59
2022-07-29T04:43:31.505Z,100197.66
2022-07-29T04:50:23.066Z,100197.69
2022-07-29T04:57:08.603Z,100203.38
2022-07-29T05:04:00.263Z,100209.81
2022-07-29T05:10:46.412Z,100206.22
2022-07-29T05:17:31.909Z,100214.28
2022-07-29T05:24:20.341Z,100106.84
2022-07-29T05:31:06.166Z,100197.91
2022-07-29T05:37:51.758Z,100207.16
2022-07-29T05:44:43.420Z,100206.00
2022-07-29T05:51:28.910Z,100221.63
2022-07-29T05:58:14.421Z,100217.19
2022-07-29T06:05:02.874Z,100222.38
2022-07-29T06:11:48.518Z,100225.13
2022-07-29T06:18:34.323Z,100232.28
2022-07-29T06:25:22.394Z,100221.34
2022-07-29T06:32:10.157Z,100225.69
2022-07-29T06:38:55.759Z,100207.19
2022-07-29T06:45:45.186Z,100167.00
2022-07-29T06:52:30.894Z,100228.94
2022-07-29T06:59:17.392Z,100163.66
2022-07-29T07:06:05.794Z,100240.84
2022-07-29T07:12:51.258Z,100250.47
2022-07-29T07:19:37.286Z,100263.53
2022-07-29T07:26:25.367Z,100256.38
2022-07-29T07:33:10.897Z,100261.66
2022-07-29T07:39:56.695Z,100268.97
2022-07-29T07:46:45.906Z,100253.00
2022-07-29T07:53:31.735Z,100266.31
2022-07-29T08:00:19.778Z,100257.72
2022-07-29T08:07:12.346Z,100254.53
2022-07-29T08:13:58.067Z,100264.03
2022-07-29T08:20:44.276Z,100261.72
2022-07-29T08:27:43.424Z,100246.03
2022-07-29T08:34:30.504Z,100222.59
2022-07-29T08:41:16.120Z,100272.94
2022-07-29T08:48:04.230Z,100275.09
2022-07-29T08:54:50.677Z,100267.97
2022-07-29T09:01:42.663Z,100267.97
2022-07-29T09:08:35.264Z,100266.72
2022-07-29T09:15:22.140Z,100276.34
2022-07-29T09:22:11.062Z,100263.91
2022-07-29T09:28:59.556Z,100265.09
2022-07-29T09:35:56.913Z,100264.38
2022-07-29T09:42:43.068Z,100254.41
2022-07-29T09:49:31.104Z,100190.09
2022-07-29T09:56:16.605Z,100258.59
2022-07-29T10:03:05.016Z,100252.25
2022-07-29T10:09:58.533Z,100249.63
2022-07-29T10:16:44.390Z,100225.66
2022-07-29T10:23:30.533Z,100168.69
2022-07-29T10:30:35.984Z,100240.31
2022-07-29T10:37:36.100Z,100242.38
2022-07-29T10:44:24.695Z,100235.44
2022-07-29T10:51:13.272Z,100230.34
2022-07-29T10:58:19.099Z,100220.16
2022-07-29T11:05:07.248Z,100222.00
2022-07-29T11:11:55.366Z,100220.94
2022-07-29T11:18:42.791Z,100229.78
2022-07-29T11:25:50.417Z,100226.47
2022-07-29T11:32:48.548Z,100216.03
2022-07-29T11:39:36.955Z,100214.91
2022-07-29T11:46:49.967Z,100175.19
2022-07-29T11:53:39.991Z,100209.72
2022-07-29T12:00:32.824Z,100203.47
2022-07-29T12:07:20.198Z,100155.88
2022-07-29T12:14:08.398Z,100189.00
2022-07-29T12:21:04.742Z,100186.56
2022-07-29T12:27:50.618Z,100180.34
2022-07-29T12:34:39.010Z,100174.75
2022-07-29T12:41:24.536Z,100164.84
2022-07-29T12:48:13.145Z,100156.75
2022-07-29T12:55:01.869Z,100158.75
2022-07-29T13:01:48.966Z,100158.28
2022-07-29T13:08:35.141Z,100153.19
2022-07-29T13:15:23.201Z,100142.88
2022-07-29T13:22:09.484Z,100141.22
2022-07-29T13:28:55.723Z,100149.25
2022-07-29T13:35:44.053Z,100136.66
2022-07-29T13:42:32.089Z,100151.09
2022-07-29T13:49:17.661Z,100158.50
2022-07-29T13:56:06.841Z,100110.25
2022-07-29T14:02:52.352Z,100147.72
2022-07-29T14:09:41.431Z,100142.41
2022-07-29T14:16:30.082Z,100138.00
2022-07-29T14:23:16.439Z,100155.53
2022-07-29T14:30:02.445Z,100155.31
2022-07-29T14:36:50.542Z,100153.19
2022-07-29T14:43:36.021Z,100161.13
2022-07-29T14:50:23.303Z,100161.59
2022-07-29T14:57:20.829Z,100151.13
2022-07-29T15:04:07.490Z,100123.72
2022-07-29T15:10:53.295Z,100147.41
2022-07-29T15:17:41.520Z,100145.38
2022-07-29T15:24:27.080Z,100150.56
2022-07-29T15:31:13.762Z,100153.63
2022-07-29T15:38:02.193Z,100160.75
2022-07-29T15:44:47.673Z,100166.41
2022-07-29T15:51:33.164Z,100166.03
2022-07-29T15:58:21.277Z,100151.63
2022-07-29T16:05:09.466Z,100141.31
2022-07-29T16:11:56.301Z,100142.66
2022-07-29T16:18:44.370Z,100138.59
2022-07-29T16:25:58.249Z,100156.63
2022-07-29T16:32:35.413Z,100170.28
2022-07-29T16:39:23.441Z,100169.03
2022-07-29T16:46:18.422Z,100179.84
2022-07-29T16:53:04.745Z,100184.44
2022-07-29T16:59:53.080Z,100181.13
2022-07-29T17:06:40.240Z,100038.63
2022-07-29T17:13:25.680Z,100208.50
2022-07-29T17:20:17.593Z,100220.38
2022-07-29T17:27:03.247Z,100229.28
2022-07-29T17:33:48.837Z,100218.25
2022-07-29T17:40:36.902Z,100217.91
2022-07-29T17:47:22.350Z,100224.72
2022-07-29T17:54:08.219Z,100235.25
2022-07-29T18:00:56.557Z,100171.16
2022-07-29T18:07:42.045Z,100264.72
2022-07-29T18:14:27.693Z,100266.06
2022-07-29T18:21:16.791Z,100267.44
2022-07-29T18:28:22.552Z,100272.63
2022-07-29T18:35:09.267Z,100298.50
2022-07-29T18:41:59.353Z,100301.22
2022-07-29T18:48:44.858Z,100320.75
2022-07-29T18:55:30.486Z,100337.88
2022-07-29T19:02:18.936Z,100225.34
2022-07-29T19:09:04.639Z,100335.78
2022-07-29T19:15:50.326Z,100331.75
2022-07-29T19:22:38.778Z,100318.75
2022-07-29T19:29:25.382Z,100244.38
2022-07-29T19:36:11.652Z,100329.19
2022-07-29T19:43:00.724Z,100339.91
2022-07-29T19:49:46.301Z,100328.47
2022-07-29T19:56:32.065Z,100387.03
2022-07-29T20:03:20.413Z,100376.94
2022-07-29T20:10:06.567Z,100398.53
2022-07-29T20:16:53.791Z,100412.25
2022-07-29T20:23:41.985Z,100407.00
2022-07-29T20:30:27.684Z,100418.59
2022-07-29T20:37:16.328Z,100388.22
2022-07-29T20:44:06.097Z,100360.66
2022-07-29T20:50:52.955Z,100402.41
2022-07-29T20:57:39.882Z,100410.16
2022-07-29T21:04:30.940Z,100395.94
2022-07-29T21:11:18.286Z,100449.91
2022-07-29T21:18:32.421Z,100435.13
2022-07-29T21:25:20.873Z,100423.81
2022-07-29T21:32:07.369Z,100452.03
2022-07-29T21:38:52.873Z,100375.94
2022-07-29T21:45:40.940Z,100455.78
2022-07-29T21:52:26.606Z,100469.16
2022-07-29T21:59:12.933Z,100469.97
2022-07-29T22:06:01.890Z,100461.16
2022-07-29T22:12:47.617Z,100476.00
2022-07-29T22:19:33.118Z,100473.59
2022-07-29T22:26:20.972Z,100461.97
2022-07-29T22:33:06.782Z,100478.41
2022-07-29T22:39:52.319Z,100479.63
2022-07-29T22:46:40.336Z,100470.38
2022-07-29T22:53:25.848Z,100462.34
2022-07-29T23:00:16.242Z,100475.59
2022-07-29T23:07:04.626Z,100473.53
2022-07-29T23:13:50.121Z,100501.25
2022-07-29T23:20:36.057Z,100496.84
2022-07-29T23:27:24.104Z,100472.72
2022-07-29T23:34:09.845Z,100481.94
2022-07-29T23:40:55.772Z,100485.19
2022-07-29T23:47:45.132Z,100484.78
2022-07-29T23:54:30.709Z,100491.59
